Time;durP1;ratioP1;P1;durP2;ratioP2;P2;SDS_P1;SDS_P2;PMS_P1;PMS_P2;Temp;Humidity;BMP_temperature;BMP_pressure;BME280_temperature;BME280_humidity;BME280_pressure;Samples;Min_cycle;Max_cycle;Signal;HPM_P1;HPM_P2
2021/05/27 00:02:36;;;;;;;1.20;1.10;;;;;;;19.87;52.23;100465.64;;;;-60
2021/05/27 00:05:36;;;;;;;1.49;1.22;;;;;;;19.87;52.20;100469.14;;;;-59
2021/05/27 00:08:36;;;;;;;1.63;1.13;;;;;;;19.85;52.18;100466.61;;;;-60
2021/05/27 00:11:36;;;;;;;1.39;1.17;;;;;;;19.84;52.16;100469.05;;;;-59
2021/05/27 00:14:36;;;;;;;1.42;1.10;;;;;;;19.84;52.15;100475.73;;;;-61
2021/05/27 00:17:36;;;;;;;1.40;1.13;;;;;;;19.82;52.24;100475.06;;;;-60
2021/05/27 00:20:36;;;;;;;1.15;1.02;;;;;;;19.81;52.28;100474.39;;;;-52
2021/05/27 00:23:36;;;;;;;1.30;1.20;;;;;;;19.80;52.19;100477.66;;;;-52
2021/05/27 00:26:36;;;;;;;1.31;1.21;;;;;;;19.79;52.33;100478.04;;;;-52
2021/05/27 00:29:36;;;;;;;1.19;1.11;;;;;;;19.78;52.22;100474.55;;;;-52
2021/05/27 00:32:36;;;;;;;1.20;1.10;;;;;;;19.77;52.21;100476.41;;;;-59
2021/05/27 00:35:36;;;;;;;1.27;1.17;;;;;;;19.76;52.30;100479.34;;;;-52
2021/05/27 00:38:36;;;;;;;1.13;1.06;;;;;;;19.76;52.21;100484.31;;;;-52
2021/05/27 00:41:36;;;;;;;1.18;1.08;;;;;;;19.75;52.27;100483.06;;;;-52
2021/05/27 00:44:36;;;;;;;1.19;1.09;;;;;;;19.73;52.30;100484.11;;;;-52
2021/05/27 00:47:36;;;;;;;1.12;1.09;;;;;;;19.73;52.24;100483.46;;;;-54
2021/05/27 00:50:36;;;;;;;2.25;1.20;;;;;;;19.72;52.25;100484.52;;;;-54
2021/05/27 00:53:36;;;;;;;1.20;1.10;;;;;;;19.71;52.27;100485.16;;;;-54
2021/05/27 00:56:36;;;;;;;1.31;1.21;;;;;;;19.70;52.26;100483.99;;;;-54
2021/05/27 00:59:36;;;;;;;1.17;1.11;;;;;;;19.69;52.29;100483.16;;;;-54
2021/05/27 01:02:36;;;;;;;1.13;1.07;;;;;;;19.68;52.28;100479.91;;;;-53
2021/05/27 01:05:37;;;;;;;1.20;1.11;;;;;;;19.67;52.35;100480.73;;;;-53
2021/05/27 01:08:36;;;;;;;1.49;1.01;;;;;;;19.66;52.24;100484.04;;;;-52
2021/05/27 01:11:36;;;;;;;1.06;1.06;;;;;;;19.66;52.33;100486.48;;;;-52
2021/05/27 01:17:36;;;;;;;1.19;1.09;;;;;;;19.63;52.40;100485.50;;;;-52
2021/05/27 01:20:36;;;;;;;1.20;1.10;;;;;;;19.63;52.34;100483.80;;;;-52
2021/05/27 01:23:36;;;;;;;1.20;1.10;;;;;;;19.62;52.33;100483.61;;;;-52
2021/05/27 01:26:36;;;;;;;1.31;1.09;;;;;;;19.61;52.32;100482.48;;;;-52
2021/05/27 01:29:36;;;;;;;0.99;0.99;;;;;;;19.60;52.38;100478.16;;;;-52
2021/05/27 01:32:36;;;;;;;1.17;1.10;;;;;;;19.60;52.36;100484.90;;;;-52
2021/05/27 01:35:36;;;;;;;1.21;1.10;;;;;;;19.59;52.37;100484.75;;;;-52
2021/05/27 01:38:36;;;;;;;1.19;1.09;;;;;;;19.58;52.32;100480.73;;;;-52
2021/05/27 01:41:36;;;;;;;1.21;1.11;;;;;;;19.58;52.38;100481.47;;;;-52
2021/05/27 01:44:36;;;;;;;1.13;1.09;;;;;;;19.57;52.40;100479.58;;;;-52
2021/05/27 01:47:36;;;;;;;1.62;1.00;;;;;;;19.56;52.40;100481.22;;;;-58
2021/05/27 01:50:37;;;;;;;1.30;1.20;;;;;;;19.56;52.33;100483.33;;;;-60
2021/05/27 01:53:36;;;;;;;1.03;1.00;;;;;;;19.55;52.39;100481.69;;;;-60
2021/05/27 01:56:36;;;;;;;1.30;1.20;;;;;;;19.54;52.38;100482.75;;;;-61
2021/05/27 01:59:36;;;;;;;1.09;1.00;;;;;;;19.53;52.43;100483.78;;;;-59
2021/05/27 02:02:36;;;;;;;1.05;1.05;;;;;;;19.52;52.42;100486.30;;;;-58
2021/05/27 02:05:36;;;;;;;1.12;1.08;;;;;;;19.52;52.37;100486.72;;;;-59
2021/05/27 02:08:36;;;;;;;1.20;1.10;;;;;;;19.51;52.37;100485.34;;;;-58
2021/05/27 02:11:36;;;;;;;1.23;1.09;;;;;;;19.51;52.34;100489.95;;;;-60
2021/05/27 02:14:36;;;;;;;1.00;1.00;;;;;;;19.49;52.40;100497.19;;;;-60
2021/05/27 02:17:36;;;;;;;1.03;1.03;;;;;;;19.49;52.46;100504.51;;;;-60
2021/05/27 02:20:36;;;;;;;1.07;1.01;;;;;;;19.48;52.46;100512.94;;;;-60
2021/05/27 02:23:36;;;;;;;0.90;0.90;;;;;;;19.48;52.38;100521.64;;;;-60
2021/05/27 02:26:36;;;;;;;1.27;1.17;;;;;;;19.47;52.46;100523.91;;;;-59
2021/05/27 02:29:36;;;;;;;1.09;1.09;;;;;;;19.47;52.40;100519.13;;;;-58
2021/05/27 02:32:36;;;;;;;1.26;1.16;;;;;;;19.46;52.41;100524.73;;;;-59
2021/05/27 02:35:36;;;;;;;1.24;1.10;;;;;;;19.46;52.45;100528.53;;;;-60
2021/05/27 02:38:36;;;;;;;1.20;1.10;;;;;;;19.44;52.49;100526.51;;;;-58
2021/05/27 02:41:36;;;;;;;1.09;1.08;;;;;;;19.44;52.48;100531.03;;;;-60
2021/05/27 02:44:36;;;;;;;1.24;1.01;;;;;;;19.43;52.42;100530.14;;;;-58
2021/05/27 02:47:36;;;;;;;1.13;1.09;;;;;;;19.43;52.42;100538.03;;;;-58
2021/05/27 02:50:36;;;;;;;0.98;0.98;;;;;;;19.42;52.52;100533.30;;;;-61
2021/05/27 02:53:36;;;;;;;0.91;0.91;;;;;;;19.42;52.43;100535.24;;;;-59
2021/05/27 02:56:36;;;;;;;1.04;1.04;;;;;;;19.40;52.53;100538.67;;;;-61
2021/05/27 02:59:36;;;;;;;1.11;1.01;;;;;;;19.40;52.46;100535.14;;;;-59
2021/05/27 03:02:36;;;;;;;1.19;1.10;;;;;;;19.40;52.47;100530.67;;;;-60
2021/05/27 03:05:36;;;;;;;1.20;1.10;;;;;;;19.39;52.45;100527.35;;;;-60
2021/05/27 03:08:36;;;;;;;1.00;1.00;;;;;;;19.38;52.47;100529.03;;;;-60
2021/05/27 03:11:36;;;;;;;1.13;1.07;;;;;;;19.38;52.41;100534.80;;;;-60
2021/05/27 03:14:36;;;;;;;0.90;0.90;;;;;;;19.37;52.46;100540.42;;;;-60
2021/05/27 03:17:36;;;;;;;1.55;1.25;;;;;;;19.36;52.46;100536.69;;;;-59
2021/05/27 03:20:36;;;;;;;1.09;1.08;;;;;;;19.36;52.47;100533.92;;;;-60
2021/05/27 03:23:36;;;;;;;1.16;1.10;;;;;;;19.35;52.48;100535.52;;;;-59
2021/05/27 03:26:36;;;;;;;0.94;0.94;;;;;;;19.35;52.48;100530.24;;;;-59
2021/05/27 03:29:36;;;;;;;1.04;1.04;;;;;;;19.34;52.41;100532.44;;;;-60
2021/05/27 03:32:36;;;;;;;0.99;0.99;;;;;;;19.34;52.51;100531.28;;;;-60
2021/05/27 03:35:36;;;;;;;1.39;1.10;;;;;;;19.32;52.42;100529.09;;;;-54
2021/05/27 03:38:36;;;;;;;1.12;1.10;;;;;;;19.32;52.53;100531.29;;;;-54
2021/05/27 03:41:36;;;;;;;0.99;0.99;;;;;;;19.32;52.46;100533.61;;;;-54
2021/05/27 03:44:36;;;;;;;0.92;0.92;;;;;;;19.31;52.48;100535.73;;;;-54
2021/05/27 03:47:37;;;;;;;1.88;1.00;;;;;;;19.30;52.49;100532.45;;;;-54
2021/05/27 03:50:36;;;;;;;1.00;1.00;;;;;;;19.29;52.38;100535.14;;;;-53
2021/05/27 03:53:36;;;;;;;1.45;1.00;;;;;;;19.29;52.52;100539.61;;;;-52
2021/05/27 03:56:36;;;;;;;1.59;1.00;;;;;;;19.28;52.53;100541.65;;;;-52
2021/05/27 04:08:36;;;;;;;1.20;1.10;;;;;;;19.27;52.46;100539.44;;;;-53
2021/05/27 04:11:36;;;;;;;0.96;0.96;;;;;;;19.26;52.47;100538.95;;;;-52
2021/05/27 04:14:36;;;;;;;0.98;0.98;;;;;;;19.26;52.50;100540.50;;;;-52
2021/05/27 04:17:36;;;;;;;1.11;1.00;;;;;;;19.25;52.49;100537.88;;;;-52
2021/05/27 04:20:36;;;;;;;1.11;1.10;;;;;;;19.25;52.50;100537.95;;;;-53
2021/05/27 04:23:36;;;;;;;1.07;1.01;;;;;;;19.25;52.47;100539.58;;;;-53
2021/05/27 04:26:36;;;;;;;0.85;0.85;;;;;;;19.24;52.52;100546.09;;;;-60
2021/05/27 04:29:36;;;;;;;1.09;1.09;;;;;;;19.23;52.47;100547.44;;;;-60
2021/05/27 04:32:58;;;;;;;1.43;0.99;;;;;;;19.23;52.45;100552.89;;;;-54
2021/05/27 04:35:36;;;;;;;1.07;1.01;;;;;;;19.23;52.54;100557.44;;;;-53
2021/05/27 04:38:36;;;;;;;3.24;2.03;;;;;;;19.16;51.04;100564.12;;;;-55
2021/05/27 04:41:36;;;;;;;3.59;2.23;;;;;;;18.95;50.97;100562.87;;;;-53
2021/05/27 04:44:36;;;;;;;2.51;2.29;;;;;;;18.67;51.62;100566.02;;;;-53
2021/05/27 04:47:36;;;;;;;2.61;2.19;;;;;;;18.42;52.58;100564.42;;;;-51
2021/05/27 04:50:36;;;;;;;2.25;1.95;;;;;;;18.48;52.64;100565.80;;;;-51
2021/05/27 04:53:36;;;;;;;3.17;1.97;;;;;;;18.55;52.81;100568.39;;;;-46
2021/05/27 04:56:36;;;;;;;3.79;1.81;;;;;;;18.60;52.61;100570.17;;;;-46
2021/05/27 04:59:36;;;;;;;2.25;1.59;;;;;;;18.67;52.50;100574.38;;;;-46
2021/05/27 05:02:36;;;;;;;5.69;1.69;;;;;;;18.71;52.63;100581.89;;;;-46
2021/05/27 05:05:36;;;;;;;2.46;1.60;;;;;;;18.74;52.51;100585.67;;;;-48
2021/05/27 05:08:36;;;;;;;1.69;1.59;;;;;;;18.78;52.50;100590.81;;;;-48
2021/05/27 05:11:36;;;;;;;2.71;1.51;;;;;;;18.80;52.45;100591.68;;;;-48
2021/05/27 05:14:36;;;;;;;3.10;1.55;;;;;;;18.82;52.41;100593.97;;;;-51
2021/05/27 05:17:36;;;;;;;2.64;1.60;;;;;;;18.84;52.44;100593.92;;;;-51
2021/05/27 05:20:36;;;;;;;2.05;1.49;;;;;;;18.85;52.43;100593.37;;;;-48
2021/05/27 05:23:36;;;;;;;1.50;1.40;;;;;;;18.86;52.46;100591.45;;;;-51
2021/05/27 05:26:36;;;;;;;1.86;1.50;;;;;;;18.88;52.42;100596.23;;;;-56
2021/05/27 05:29:36;;;;;;;2.18;1.40;;;;;;;18.90;52.40;100595.20;;;;-58
2021/05/27 05:32:36;;;;;;;1.68;1.47;;;;;;;18.93;52.38;100602.97;;;;-58
2021/05/27 05:35:36;;;;;;;1.42;1.32;;;;;;;18.96;52.39;100599.98;;;;-56
2021/05/27 05:38:36;;;;;;;1.40;1.30;;;;;;;18.99;52.37;100599.63;;;;-45
2021/05/27 05:41:36;;;;;;;1.51;1.30;;;;;;;19.02;52.38;100602.00;;;;-51
2021/05/27 05:44:36;;;;;;;1.50;1.40;;;;;;;19.06;52.37;100596.19;;;;-51
2021/05/27 05:47:36;;;;;;;1.44;1.34;;;;;;;19.09;52.44;100595.40;;;;-46
2021/05/27 05:50:49;;;;;;;1.49;1.39;;;;;;;19.12;52.31;100594.06;;;;-46
2021/05/27 05:53:36;;;;;;;1.67;1.41;;;;;;;19.15;52.43;100595.45;;;;-48
2021/05/27 05:56:36;;;;;;;1.51;1.36;;;;;;;19.17;52.51;100594.29;;;;-51
2021/05/27 05:59:36;;;;;;;1.67;1.41;;;;;;;19.21;52.56;100590.32;;;;-48
2021/05/27 06:02:36;;;;;;;1.76;1.43;;;;;;;19.23;52.39;100590.50;;;;-58
2021/05/27 06:05:36;;;;;;;1.30;1.20;;;;;;;19.25;52.45;100587.11;;;;-51
2021/05/27 06:08:36;;;;;;;1.40;1.27;;;;;;;19.27;52.48;100585.99;;;;-48
2021/05/27 06:11:36;;;;;;;1.79;1.36;;;;;;;19.28;52.52;100593.09;;;;-48
2021/05/27 06:14:36;;;;;;;1.36;1.26;;;;;;;19.30;52.54;100599.77;;;;-51
2021/05/27 06:17:36;;;;;;;1.54;1.20;;;;;;;19.33;52.42;100602.95;;;;-51
2021/05/27 06:20:36;;;;;;;1.58;1.30;;;;;;;19.33;52.50;100601.49;;;;-51
2021/05/27 06:23:36;;;;;;;2.06;1.30;;;;;;;19.35;52.54;100601.02;;;;-48
2021/05/27 06:26:36;;;;;;;1.30;1.20;;;;;;;19.35;52.48;100608.42;;;;-46
2021/05/27 06:29:36;;;;;;;1.27;1.17;;;;;;;19.37;52.45;100617.70;;;;-51
2021/05/27 06:32:37;;;;;;;1.31;1.21;;;;;;;19.38;52.37;100612.41;;;;-46
2021/05/27 06:35:36;;;;;;;1.40;1.30;;;;;;;19.38;52.37;100617.16;;;;-51
2021/05/27 06:38:36;;;;;;;1.62;1.30;;;;;;;19.39;52.38;100620.81;;;;-50
2021/05/27 06:41:36;;;;;;;1.45;1.35;;;;;;;19.40;52.39;100623.41;;;;-48
2021/05/27 06:44:36;;;;;;;1.03;1.03;;;;;;;19.40;52.31;100630.31;;;;-46
2021/05/27 06:47:36;;;;;;;1.29;1.20;;;;;;;19.40;52.31;100632.18;;;;-46
2021/05/27 06:50:37;;;;;;;1.37;1.27;;;;;;;19.40;52.21;100631.13;;;;-58
2021/05/27 06:53:36;;;;;;;1.31;1.21;;;;;;;19.40;52.35;100629.04;;;;-58
2021/05/27 06:56:36;;;;;;;1.77;1.21;;;;;;;19.40;52.28;100627.58;;;;-46
2021/05/27 06:59:36;;;;;;;1.23;1.16;;;;;;;19.41;52.21;100627.81;;;;-58
2021/05/27 07:02:36;;;;;;;1.21;1.13;;;;;;;19.41;52.22;100631.88;;;;-51
2021/05/27 07:05:36;;;;;;;1.33;1.23;;;;;;;19.40;52.20;100631.80;;;;-51
2021/05/27 07:08:36;;;;;;;1.30;1.20;;;;;;;19.40;52.10;100631.05;;;;-51
2021/05/27 07:11:36;;;;;;;1.39;1.29;;;;;;;19.40;52.18;100635.43;;;;-50
2021/05/27 07:14:36;;;;;;;1.30;1.20;;;;;;;19.40;52.09;100632.27;;;;-50
2021/05/27 07:17:36;;;;;;;1.17;1.12;;;;;;;19.40;52.14;100634.54;;;;-51
2021/05/27 07:20:37;;;;;;;1.31;1.19;;;;;;;19.39;52.17;100630.80;;;;-51
2021/05/27 07:23:36;;;;;;;1.19;1.10;;;;;;;19.40;52.03;100629.98;;;;-48
2021/05/27 07:26:36;;;;;;;1.30;1.20;;;;;;;19.39;52.11;100627.95;;;;-48
2021/05/27 07:29:36;;;;;;;1.11;1.07;;;;;;;19.38;52.04;100625.28;;;;-48
2021/05/27 07:32:37;;;;;;;1.30;1.20;;;;;;;19.38;52.06;100622.16;;;;-57
2021/05/27 07:35:36;;;;;;;1.14;1.10;;;;;;;19.37;52.05;100625.66;;;;-46
2021/05/27 07:38:36;;;;;;;1.12;1.09;;;;;;;19.37;51.99;100623.55;;;;-46
2021/05/27 07:41:36;;;;;;;1.10;1.10;;;;;;;19.37;52.06;100630.70;;;;-45
2021/05/27 07:44:36;;;;;;;1.37;1.20;;;;;;;19.36;52.01;100624.53;;;;-58
2021/05/27 07:47:36;;;;;;;1.21;1.10;;;;;;;19.37;52.02;100624.94;;;;-58
2021/05/27 07:50:36;;;;;;;1.10;1.10;;;;;;;19.35;52.00;100627.92;;;;-58
2021/05/27 07:53:36;;;;;;;1.22;1.15;;;;;;;19.36;52.00;100630.11;;;;-58
2021/05/27 07:56:36;;;;;;;1.39;1.20;;;;;;;19.35;51.99;100631.41;;;;-58
2021/05/27 07:59:36;;;;;;;1.93;1.21;;;;;;;19.35;52.22;100630.68;;;;-58
2021/05/27 08:02:36;;;;;;;1.75;1.20;;;;;;;19.36;52.70;100630.35;;;;-58
2021/05/27 08:05:36;;;;;;;2.08;1.20;;;;;;;19.37;52.93;100630.70;;;;-57
2021/05/27 08:08:36;;;;;;;2.39;1.20;;;;;;;19.38;53.08;100635.20;;;;-57
2021/05/27 08:11:36;;;;;;;1.61;1.25;;;;;;;19.40;53.08;100633.59;;;;-57
2021/05/27 08:14:37;;;;;;;1.30;1.10;;;;;;;19.42;53.14;100638.00;;;;-58
2021/05/27 08:17:36;;;;;;;1.37;1.20;;;;;;;19.45;53.09;100635.41;;;;-57
2021/05/27 08:20:37;;;;;;;1.30;1.20;;;;;;;19.49;53.15;100639.68;;;;-58
2021/05/27 08:23:36;;;;;;;2.21;1.03;;;;;;;19.52;53.19;100636.44;;;;-52
2021/05/27 08:26:36;;;;;;;1.19;1.12;;;;;;;19.55;53.40;100635.43;;;;-54
2021/05/27 08:29:36;;;;;;;1.24;1.14;;;;;;;19.59;53.79;100633.76;;;;-47
2021/05/27 08:32:36;;;;;;;1.32;1.20;;;;;;;19.62;53.58;100632.95;;;;-55
2021/05/27 08:35:36;;;;;;;1.85;1.23;;;;;;;19.66;53.36;100641.04;;;;-50
2021/05/27 08:38:36;;;;;;;2.11;1.31;;;;;;;19.71;53.39;100642.81;;;;-51
2021/05/27 08:41:36;;;;;;;2.49;1.26;;;;;;;19.72;53.18;100644.78;;;;-49
2021/05/27 08:44:36;;;;;;;3.03;1.31;;;;;;;19.72;52.93;100650.72;;;;-52
2021/05/27 08:47:36;;;;;;;23.79;1.55;;;;;;;19.73;52.64;100648.11;;;;-51
2021/05/27 08:50:41;;;;;;;1.49;1.30;;;;;;;19.73;52.89;100646.16;;;;-57
2021/05/27 08:53:36;;;;;;;2.54;1.40;;;;;;;19.74;52.75;100650.08;;;;-58
2021/05/27 08:56:36;;;;;;;2.51;1.43;;;;;;;19.76;52.64;100654.74;;;;-52
2021/05/27 08:59:36;;;;;;;2.17;1.50;;;;;;;19.76;52.54;100655.95;;;;-49
2021/05/27 09:02:36;;;;;;;1.87;1.47;;;;;;;19.78;52.44;100657.84;;;;-51
2021/05/27 09:05:36;;;;;;;2.35;1.40;;;;;;;19.79;52.57;100657.68;;;;-54
2021/05/27 09:08:38;;;;;;;2.64;1.39;;;;;;;19.80;52.76;100659.33;;;;-53
2021/05/27 09:11:36;;;;;;;1.67;1.33;;;;;;;19.80;52.63;100660.79;;;;-58
2021/05/27 09:14:36;;;;;;;2.24;1.32;;;;;;;19.81;52.56;100662.09;;;;-59
2021/05/27 09:17:36;;;;;;;1.66;1.35;;;;;;;19.82;52.62;100663.17;;;;-56
2021/05/27 09:20:36;;;;;;;2.61;1.46;;;;;;;19.84;52.63;100669.61;;;;-53
2021/05/27 09:23:36;;;;;;;3.53;1.43;;;;;;;19.86;52.74;100669.05;;;;-52
2021/05/27 09:26:36;;;;;;;2.11;1.46;;;;;;;19.86;52.69;100674.83;;;;-52
2021/05/27 09:29:36;;;;;;;7.49;1.55;;;;;;;19.88;52.91;100678.59;;;;-50
2021/05/27 09:32:36;;;;;;;3.87;1.48;;;;;;;19.90;52.91;100676.82;;;;-54
2021/05/27 09:35:36;;;;;;;4.29;1.55;;;;;;;19.92;52.79;100680.79;;;;-58
2021/05/27 09:38:36;;;;;;;2.51;1.41;;;;;;;19.93;52.79;100685.05;;;;-49
2021/05/27 09:41:36;;;;;;;6.93;1.43;;;;;;;19.95;52.93;100686.20;;;;-52
2021/05/27 09:44:36;;;;;;;3.81;1.35;;;;;;;19.96;52.89;100682.37;;;;-50
2021/05/27 09:47:36;;;;;;;2.30;1.35;;;;;;;19.98;52.92;100683.69;;;;-59
2021/05/27 09:50:36;;;;;;;2.60;1.39;;;;;;;19.98;52.91;100688.03;;;;-49
2021/05/27 09:53:36;;;;;;;5.15;1.51;;;;;;;20.00;52.70;100689.89;;;;-55
2021/05/27 09:56:36;;;;;;;2.79;1.40;;;;;;;19.98;52.67;100688.08;;;;-54
2021/05/27 09:59:36;;;;;;;10.55;1.57;;;;;;;19.97;52.74;100687.52;;;;-56
2021/05/27 10:02:36;;;;;;;9.82;1.76;;;;;;;20.01;53.09;100690.81;;;;-58
2021/05/27 10:05:36;;;;;;;6.55;1.60;;;;;;;20.03;52.95;100695.05;;;;-54
2021/05/27 10:08:36;;;;;;;4.23;1.60;;;;;;;20.03;52.86;100692.13;;;;-59
2021/05/27 10:11:36;;;;;;;2.71;1.39;;;;;;;20.03;52.91;100689.36;;;;-52
2021/05/27 10:14:36;;;;;;;5.23;1.75;;;;;;;20.01;52.58;100687.30;;;;-51
2021/05/27 10:17:36;;;;;;;6.57;1.62;;;;;;;19.99;52.60;100684.28;;;;-51
2021/05/27 10:20:36;;;;;;;5.34;1.50;;;;;;;20.01;52.70;100687.64;;;;-54
2021/05/27 10:23:36;;;;;;;2.73;1.40;;;;;;;20.01;52.78;100687.23;;;;-51
2021/05/27 10:26:36;;;;;;;2.02;1.38;;;;;;;20.02;52.88;100685.43;;;;-50
2021/05/27 10:29:36;;;;;;;2.39;1.39;;;;;;;20.01;52.51;100686.73;;;;-50
2021/05/27 10:32:37;;;;;;;3.75;1.61;;;;;;;20.00;52.46;100682.97;;;;-50
2021/05/27 10:35:36;;;;;;;3.11;1.50;;;;;;;19.98;52.45;100683.28;;;;-51
2021/05/27 10:38:36;;;;;;;2.05;1.37;;;;;;;19.98;52.37;100685.56;;;;-51
2021/05/27 10:41:36;;;;;;;3.95;1.41;;;;;;;19.97;52.37;100688.41;;;;-51
2021/05/27 10:44:36;;;;;;;1.73;1.30;;;;;;;19.96;52.27;100688.34;;;;-51
2021/05/27 10:47:36;;;;;;;2.59;1.40;;;;;;;19.96;52.26;100686.61;;;;-51
2021/05/27 10:50:36;;;;;;;2.55;1.25;;;;;;;19.95;52.26;100683.03;;;;-51
2021/05/27 10:53:37;;;;;;;3.57;1.30;;;;;;;19.94;52.22;100686.66;;;;-51
2021/05/27 10:56:37;;;;;;;2.21;1.33;;;;;;;19.93;52.27;100681.95;;;;-49
2021/05/27 10:59:36;;;;;;;2.67;1.33;;;;;;;19.93;52.23;100681.14;;;;-50
2021/05/27 11:02:36;;;;;;;2.96;1.31;;;;;;;19.92;52.19;100679.36;;;;-51
2021/05/27 11:05:36;;;;;;;2.19;1.42;;;;;;;19.92;52.20;100677.95;;;;-54
2021/05/27 11:08:36;;;;;;;2.49;1.23;;;;;;;19.92;52.13;100676.97;;;;-54
2021/05/27 11:11:36;;;;;;;1.79;1.23;;;;;;;19.91;52.14;100675.27;;;;-54
2021/05/27 11:14:36;;;;;;;1.42;1.23;;;;;;;19.92;52.06;100677.30;;;;-54
2021/05/27 11:17:36;;;;;;;1.41;1.28;;;;;;;19.91;52.12;100672.66;;;;-54
2021/05/27 11:20:36;;;;;;;2.29;1.49;;;;;;;19.91;52.13;100666.32;;;;-54
2021/05/27 11:23:36;;;;;;;1.61;1.41;;;;;;;19.90;52.12;100663.53;;;;-54
2021/05/27 11:26:36;;;;;;;3.57;1.30;;;;;;;19.91;52.22;100662.58;;;;-60
2021/05/27 11:29:36;;;;;;;2.95;1.46;;;;;;;19.92;52.32;100655.83;;;;-51
2021/05/27 11:32:36;;;;;;;2.71;1.32;;;;;;;19.93;52.48;100658.85;;;;-59
2021/05/27 11:35:36;;;;;;;1.47;1.36;;;;;;;19.94;52.55;100655.35;;;;-51
2021/05/27 11:38:36;;;;;;;2.12;1.34;;;;;;;19.94;52.61;100656.33;;;;-48
2021/05/27 11:41:38;;;;;;;2.00;1.30;;;;;;;19.95;52.75;100658.55;;;;-43
2021/05/27 11:44:36;;;;;;;3.21;1.38;;;;;;;19.97;52.74;100661.33;;;;-45
2021/05/27 11:47:36;;;;;;;2.11;1.30;;;;;;;19.98;52.92;100657.17;;;;-49
2021/05/27 11:50:36;;;;;;;1.67;1.30;;;;;;;20.01;53.04;100655.02;;;;-47
2021/05/27 11:53:36;;;;;;;2.90;1.35;;;;;;;20.01;53.03;100652.00;;;;-48
2021/05/27 11:56:37;;;;;;;6.15;1.65;;;;;;;20.03;53.06;100650.64;;;;-49
2021/05/27 11:59:37;;;;;;;5.63;1.67;;;;;;;20.01;52.79;100647.44;;;;-43
2021/05/27 12:02:36;;;;;;;5.18;1.67;;;;;;;20.06;52.97;100645.44;;;;-53
2021/05/27 12:05:36;;;;;;;5.25;1.62;;;;;;;20.07;53.10;100643.34;;;;-44
2021/05/27 12:08:36;;;;;;;7.85;1.55;;;;;;;20.08;53.27;100643.34;;;;-45
2021/05/27 12:11:36;;;;;;;3.88;1.50;;;;;;;20.11;53.20;100640.93;;;;-44
2021/05/27 12:14:36;;;;;;;1.99;1.50;;;;;;;20.11;53.07;100635.07;;;;-44
2021/05/27 12:17:37;;;;;;;5.20;1.71;;;;;;;20.14;53.46;100636.21;;;;-50
2021/05/27 12:20:36;;;;;;;5.62;1.65;;;;;;;20.16;53.28;100633.22;;;;-54
2021/05/27 12:23:36;;;;;;;5.29;1.50;;;;;;;20.17;53.46;100639.66;;;;-48
2021/05/27 12:26:36;;;;;;;3.53;1.51;;;;;;;20.19;53.47;100635.20;;;;-52
2021/05/27 12:29:36;;;;;;;4.65;1.50;;;;;;;20.20;53.10;100630.97;;;;-53
2021/05/27 12:32:38;;;;;;;6.23;1.49;;;;;;;20.23;53.85;100629.34;;;;-48
2021/05/27 12:35:36;;;;;;;3.57;1.63;;;;;;;20.25;53.77;100628.38;;;;-47
2021/05/27 12:38:36;;;;;;;2.69;1.55;;;;;;;20.27;53.74;100634.34;;;;-55
2021/05/27 12:41:36;;;;;;;3.73;1.54;;;;;;;20.28;53.77;100635.33;;;;-55
2021/05/27 12:44:38;;;;;;;4.30;1.51;;;;;;;20.28;53.44;100634.59;;;;-54
2021/05/27 12:47:36;;;;;;;3.70;1.53;;;;;;;20.27;53.35;100633.84;;;;-45
2021/05/27 12:50:36;;;;;;;10.91;2.12;;;;;;;20.25;53.15;100629.61;;;;-54
2021/05/27 12:53:36;;;;;;;3.05;1.60;;;;;;;20.25;53.20;100631.23;;;;-49
2021/05/27 12:56:36;;;;;;;11.97;1.93;;;;;;;20.27;53.43;100636.13;;;;-56
2021/05/27 12:59:36;;;;;;;12.71;2.87;;;;;;;20.27;53.10;100635.91;;;;-51
2021/05/27 13:02:36;;;;;;;7.53;2.09;;;;;;;20.27;53.05;100635.31;;;;-51
2021/05/27 13:05:36;;;;;;;8.21;1.79;;;;;;;20.26;53.13;100639.39;;;;-56
2021/05/27 13:08:36;;;;;;;5.79;1.97;;;;;;;20.26;53.06;100644.59;;;;-58
2021/05/27 13:11:36;;;;;;;7.29;1.67;;;;;;;20.26;53.01;100640.70;;;;-59
2021/05/27 13:14:36;;;;;;;6.64;1.81;;;;;;;20.26;53.16;100644.92;;;;-56
2021/05/27 13:17:36;;;;;;;4.03;1.64;;;;;;;20.25;53.09;100650.84;;;;-59
2021/05/27 13:20:36;;;;;;;3.67;1.67;;;;;;;20.24;53.06;100657.03;;;;-56
2021/05/27 13:23:37;;;;;;;4.10;1.68;;;;;;;20.25;53.15;100667.03;;;;-54
2021/05/27 13:26:37;;;;;;;7.61;1.61;;;;;;;20.25;53.01;100667.93;;;;-54
2021/05/27 13:29:36;;;;;;;3.65;1.49;;;;;;;20.24;53.08;100666.64;;;;-61
2021/05/27 13:32:36;;;;;;;3.86;1.60;;;;;;;20.24;53.11;100677.55;;;;-60
2021/05/27 13:35:36;;;;;;;5.11;1.67;;;;;;;20.25;53.02;100677.30;;;;-50
2021/05/27 13:38:36;;;;;;;2.88;1.60;;;;;;;20.24;53.11;100680.87;;;;-51
2021/05/27 13:41:36;;;;;;;3.93;1.69;;;;;;;20.25;53.13;100685.43;;;;-50
2021/05/27 13:44:36;;;;;;;3.95;1.63;;;;;;;20.26;52.77;100690.42;;;;-49
2021/05/27 13:47:36;;;;;;;3.98;1.64;;;;;;;20.25;52.91;100694.79;;;;-47
2021/05/27 13:50:36;;;;;;;2.83;1.63;;;;;;;20.24;52.95;100697.56;;;;-52
2021/05/27 13:53:37;;;;;;;2.72;1.45;;;;;;;20.24;52.98;100693.91;;;;-51
2021/05/27 13:56:36;;;;;;;8.31;1.78;;;;;;;20.25;53.05;100692.09;;;;-56
2021/05/27 13:59:36;;;;;;;3.09;1.60;;;;;;;20.24;52.99;100692.77;;;;-48
2021/05/27 14:02:36;;;;;;;3.26;1.53;;;;;;;20.24;52.71;100687.31;;;;-61
2021/05/27 14:05:36;;;;;;;3.82;1.53;;;;;;;20.23;52.83;100689.76;;;;-65
2021/05/27 14:08:37;;;;;;;5.24;1.60;;;;;;;20.23;52.92;100689.24;;;;-49
2021/05/27 14:11:36;;;;;;;5.21;1.79;;;;;;;20.23;53.02;100685.25;;;;-51
2021/05/27 14:14:36;;;;;;;4.44;1.55;;;;;;;20.24;52.97;100686.25;;;;-50
2021/05/27 14:17:36;;;;;;;1.88;1.50;;;;;;;20.24;52.93;100685.92;;;;-47
2021/05/27 14:20:36;;;;;;;2.18;1.49;;;;;;;20.24;53.07;100689.34;;;;-51
2021/05/27 14:23:36;;;;;;;3.14;1.53;;;;;;;20.23;52.98;100695.61;;;;-51
2021/05/27 14:26:36;;;;;;;2.95;1.59;;;;;;;20.25;53.16;100697.97;;;;-49
2021/05/27 14:29:36;;;;;;;2.69;1.60;;;;;;;20.24;52.61;100703.09;;;;-51
2021/05/27 14:32:36;;;;;;;3.28;1.51;;;;;;;20.23;52.62;100704.56;;;;-57
2021/05/27 14:35:36;;;;;;;9.47;1.81;;;;;;;20.22;52.79;100729.61;;;;-57
2021/05/27 14:38:36;;;;;;;2.01;1.45;;;;;;;20.21;52.72;100754.52;;;;-53
2021/05/27 14:41:36;;;;;;;2.14;1.53;;;;;;;20.21;52.74;100752.45;;;;-53
2021/05/27 14:44:36;;;;;;;4.86;1.58;;;;;;;20.22;52.65;100752.16;;;;-59
2021/05/27 14:47:36;;;;;;;1.73;1.34;;;;;;;20.21;52.66;100759.29;;;;-59
2021/05/27 14:50:36;;;;;;;2.25;1.47;;;;;;;20.20;52.77;100755.15;;;;-61
2021/05/27 14:53:36;;;;;;;3.40;1.58;;;;;;;20.21;52.74;100756.45;;;;-51
2021/05/27 14:56:36;;;;;;;2.76;1.59;;;;;;;20.21;52.78;100749.77;;;;-53
2021/05/27 14:59:36;;;;;;;9.51;1.59;;;;;;;20.22;52.76;100755.41;;;;-54
2021/05/27 15:02:42;;;;;;;6.12;1.55;;;;;;;20.21;52.73;100759.62;;;;-51
2021/05/27 15:05:36;;;;;;;4.51;1.46;;;;;;;20.19;52.73;100761.72;;;;-51
2021/05/27 15:08:36;;;;;;;3.27;1.65;;;;;;;20.18;52.68;100760.09;;;;-51
2021/05/27 15:11:36;;;;;;;2.92;1.53;;;;;;;20.17;52.72;100759.37;;;;-51
2021/05/27 15:14:36;;;;;;;3.75;1.53;;;;;;;20.17;52.75;100759.98;;;;-57
2021/05/27 15:17:36;;;;;;;2.01;1.43;;;;;;;20.16;52.65;100755.52;;;;-54
2021/05/27 15:20:36;;;;;;;2.67;1.50;;;;;;;20.14;52.66;100762.66;;;;-51
2021/05/27 15:23:36;;;;;;;1.75;1.29;;;;;;;20.15;52.59;100769.41;;;;-51
2021/05/27 15:26:36;;;;;;;2.65;1.55;;;;;;;20.14;52.67;100773.65;;;;-51
2021/05/27 15:29:36;;;;;;;4.37;1.49;;;;;;;20.13;52.61;100771.30;;;;-51
2021/05/27 15:32:36;;;;;;;1.64;1.47;;;;;;;20.12;52.58;100770.94;;;;-52
2021/05/27 15:35:36;;;;;;;2.67;1.40;;;;;;;20.12;52.54;100767.52;;;;-52
2021/05/27 15:38:36;;;;;;;1.74;1.42;;;;;;;20.12;52.59;100765.66;;;;-52
2021/05/27 15:41:36;;;;;;;1.49;1.39;;;;;;;20.11;52.56;100767.70;;;;-52
2021/05/27 15:44:36;;;;;;;2.57;1.70;;;;;;;20.12;52.72;100768.50;;;;-51
2021/05/27 15:47:36;;;;;;;2.17;1.40;;;;;;;20.11;52.85;100763.84;;;;-59
2021/05/27 15:50:36;;;;;;;2.37;1.57;;;;;;;20.10;52.87;100759.21;;;;-61
2021/05/27 15:53:36;;;;;;;3.47;1.50;;;;;;;20.12;52.78;100758.01;;;;-53
2021/05/27 15:56:35;;;;;;;4.27;1.62;;;;;;;20.12;52.91;100755.97;;;;-52
2021/05/27 15:59:36;;;;;;;2.53;1.51;;;;;;;20.13;52.75;100760.06;;;;-56
2021/05/27 16:02:36;;;;;;;8.22;1.69;;;;;;;20.14;52.85;100756.16;;;;-54
2021/05/27 16:05:36;;;;;;;4.45;1.61;;;;;;;20.14;52.76;100757.86;;;;-56
2021/05/27 16:08:36;;;;;;;3.79;1.65;;;;;;;20.14;52.78;100760.06;;;;-51
2021/05/27 16:11:36;;;;;;;2.93;1.47;;;;;;;20.14;52.84;100761.68;;;;-51
2021/05/27 16:14:36;;;;;;;2.69;1.68;;;;;;;20.14;52.91;100755.83;;;;-52
2021/05/27 16:17:36;;;;;;;2.13;1.50;;;;;;;20.15;52.99;100750.72;;;;-50
2021/05/27 16:20:36;;;;;;;3.67;1.68;;;;;;;20.15;52.94;100746.57;;;;-58
2021/05/27 16:23:36;;;;;;;3.68;1.61;;;;;;;20.16;53.00;100739.16;;;;-56
2021/05/27 16:26:36;;;;;;;3.47;1.51;;;;;;;20.17;52.96;100744.88;;;;-58
2021/05/27 16:29:36;;;;;;;1.67;1.40;;;;;;;20.17;52.98;100744.06;;;;-58
2021/05/27 16:32:36;;;;;;;1.68;1.50;;;;;;;20.19;53.05;100745.87;;;;-53
2021/05/27 16:35:39;;;;;;;5.33;1.60;;;;;;;20.22;53.04;100748.73;;;;-57
2021/05/27 16:38:36;;;;;;;3.11;1.71;;;;;;;20.20;53.16;100738.22;;;;-60
2021/05/27 16:41:36;;;;;;;4.78;1.57;;;;;;;20.21;53.15;100735.97;;;;-58
2021/05/27 16:44:36;;;;;;;4.39;1.70;;;;;;;20.21;53.20;100729.99;;;;-52
2021/05/27 16:47:36;;;;;;;4.67;1.71;;;;;;;20.23;53.18;100730.50;;;;-56
2021/05/27 16:50:36;;;;;;;5.45;1.83;;;;;;;20.23;53.17;100728.17;;;;-57
2021/05/27 16:53:36;;;;;;;3.03;1.60;;;;;;;20.25;53.25;100734.18;;;;-51
2021/05/27 16:56:36;;;;;;;5.33;1.77;;;;;;;20.25;53.31;100736.16;;;;-53